sensor_id;sensor_type;location;lat;lon;timestamp;pressure;altitude;pressure_sealevel;temperature;humidity
13080;BME280;6606;49.154;9.280;2022-11-11T00:02:22;101132.13;;;4.90;100.00
13080;BME280;6606;49.154;9.280;2022-11-11T00:05:08;101133.00;;;4.88;100.00
13080;BME280;6606;49.154;9.280;2022-11-11T00:07:54;101130.38;;;4.86;100.00
13080;BME280;6606;49.154;9.280;2022-11-11T00:10:44;101119.91;;;4.77;100.00
13080;BME280;6606;49.154;9.280;2022-11-11T00:13:30;101123.38;;;4.79;100.00
13080;BME280;6606;49.154;9.280;2022-11-11T00:16:17;101123.38;;;4.79;100.00
13080;BME280;6606;49.154;9.280;2022-11-11T00:19:03;101126.03;;;4.77;100.00
13080;BME280;6606;49.154;9.280;2022-11-11T00:22:10;101129.53;;;4.78;100.00
13080;BME280;6606;49.154;9.280;2022-11-11T00:25:21;101128.66;;;4.76;100.00
13080;BME280;6606;49.154;9.280;2022-11-11T00:28:07;101134.81;;;4.76;100.00
13080;BME280;6606;49.154;9.280;2022-11-11T00:31:00;101135.66;;;4.75;100.00
13080;BME280;6606;49.154;9.280;2022-11-11T00:33:45;101136.56;;;4.74;100.00
13080;BME280;6606;49.154;9.280;2022-11-11T00:36:30;101140.06;;;4.76;100.00
13080;BME280;6606;49.154;9.280;2022-11-11T00:39:14;101143.56;;;4.72;100.00
13080;BME280;6606;49.154;9.280;2022-11-11T00:42:00;101147.94;;;4.70;100.00
13080;BME280;6606;49.154;9.280;2022-11-11T00:44:46;101145.31;;;4.67;100.00
13080;BME280;6606;49.154;9.280;2022-11-11T00:47:32;101146.19;;;4.69;100.00
13080;BME280;6606;49.154;9.280;2022-11-11T00:50:34;101138.34;;;4.66;100.00
13080;BME280;6606;49.154;9.280;2022-11-11T00:53:37;101133.06;;;4.63;100.00
13080;BME280;6606;49.154;9.280;2022-11-11T00:56:24;101143.56;;;4.60;100.00
13080;BME280;6606;49.154;9.280;2022-11-11T00:59:09;101130.47;;;4.55;100.00
13080;BME280;6606;49.154;9.280;2022-11-11T01:01:55;101135.72;;;4.51;100.00
13080;BME280;6606;49.154;9.280;2022-11-11T01:04:41;101147.09;;;4.50;100.00
13080;BME280;6606;49.154;9.280;2022-11-11T01:07:26;101154.09;;;4.54;100.00
13080;BME280;6606;49.154;9.280;2022-11-11T01:10:11;101145.34;;;4.58;100.00
13080;BME280;6606;49.154;9.280;2022-11-11T01:12:56;101143.59;;;4.54;100.00
13080;BME280;6606;49.154;9.280;2022-11-11T01:15:58;101146.22;;;4.57;100.00
13080;BME280;6606;49.154;9.280;2022-11-11T01:18:44;101146.19;;;4.63;100.00
13080;BME280;6606;49.154;9.280;2022-11-11T01:21:30;101152.34;;;4.62;100.00
13080;BME280;6606;49.154;9.280;2022-11-11T01:24:15;101158.44;;;4.62;100.00
13080;BME280;6606;49.154;9.280;2022-11-11T01:27:00;101162.84;;;4.59;100.00
13080;BME280;6606;49.154;9.280;2022-11-11T01:29:46;101155.84;;;4.58;100.00
13080;BME280;6606;49.154;9.280;2022-11-11T01:32:31;101160.22;;;4.57;100.00
13080;BME280;6606;49.154;9.280;2022-11-11T01:35:18;101155.84;;;4.55;100.00
13080;BME280;6606;49.154;9.280;2022-11-11T01:38:04;101158.50;;;4.50;100.00
13080;BME280;6606;49.154;9.280;2022-11-11T01:40:49;101155.84;;;4.49;100.00
13080;BME280;6606;49.154;9.280;2022-11-11T01:43:34;101153.22;;;4.56;100.00
13080;BME280;6606;49.154;9.280;2022-11-11T01:46:26;101159.34;;;4.57;100.00
13080;BME280;6606;49.154;9.280;2022-11-11T01:49:20;101151.47;;;4.52;100.00
13080;BME280;6606;49.154;9.280;2022-11-11T01:52:11;101167.22;;;4.49;100.00
13080;BME280;6606;49.154;9.280;2022-11-11T01:54:59;101166.38;;;4.38;100.00
13080;BME280;6606;49.154;9.280;2022-11-11T01:57:49;101165.50;;;4.30;100.00
13080;BME280;6606;49.154;9.280;2022-11-11T02:00:35;101171.63;;;4.33;100.00
13080;BME280;6606;49.154;9.280;2022-11-11T02:03:22;101176.88;;;4.33;100.00
13080;BME280;6606;49.154;9.280;2022-11-11T02:06:10;101172.50;;;4.32;100.00
13080;BME280;6606;49.154;9.280;2022-11-11T02:08:55;101170.75;;;4.34;100.00
13080;BME280;6606;49.154;9.280;2022-11-11T02:11:41;101173.38;;;4.40;100.00
13080;BME280;6606;49.154;9.280;2022-11-11T02:14:46;101170.75;;;4.45;100.00
13080;BME280;6606;49.154;9.280;2022-11-11T02:17:33;101176.00;;;4.53;100.00
13080;BME280;6606;49.154;9.280;2022-11-11T02:20:21;101166.34;;;4.52;100.00
13080;BME280;6606;49.154;9.280;2022-11-11T02:23:10;101158.47;;;4.49;100.00
13080;BME280;6606;49.154;9.280;2022-11-11T02:26:01;101161.09;;;4.55;100.00
13080;BME280;6606;49.154;9.280;2022-11-11T02:28:48;101155.84;;;4.64;100.00
13080;BME280;6606;49.154;9.280;2022-11-11T02:31:34;101166.34;;;4.67;100.00
13080;BME280;6606;49.154;9.280;2022-11-11T02:34:20;101168.09;;;4.71;100.00
13080;BME280;6606;49.154;9.280;2022-11-11T02:37:07;101175.06;;;4.72;100.00
13080;BME280;6606;49.154;9.280;2022-11-11T02:39:56;101169.81;;;4.68;100.00
13080;BME280;6606;49.154;9.280;2022-11-11T02:42:45;101162.81;;;4.74;100.00
13080;BME280;6606;49.154;9.280;2022-11-11T02:45:30;101159.28;;;4.78;100.00
13080;BME280;6606;49.154;9.280;2022-11-11T02:48:16;101159.25;;;4.89;100.00
13080;BME280;6606;49.154;9.280;2022-11-11T02:51:01;101161.00;;;4.98;100.00
13080;BME280;6606;49.154;9.280;2022-11-11T02:53:46;101149.59;;;5.02;100.00
13080;BME280;6606;49.154;9.280;2022-11-11T02:56:31;101141.69;;;5.06;100.00
13080;BME280;6606;49.154;9.280;2022-11-11T02:59:37;101147.00;;;4.96;100.00
13080;BME280;6606;49.154;9.280;2022-11-11T03:02:23;101153.09;;;5.02;100.00
13080;BME280;6606;49.154;9.280;2022-11-11T03:05:10;101147.00;;;4.93;100.00
13080;BME280;6606;49.154;9.280;2022-11-11T03:07:55;101152.25;;;4.96;100.00
13080;BME280;6606;49.154;9.280;2022-11-11T03:10:40;101148.75;;;4.95;100.00
13080;BME280;6606;49.154;9.280;2022-11-11T03:13:26;101149.63;;;4.94;100.00
13080;BME280;6606;49.154;9.280;2022-11-11T03:16:13;101146.13;;;4.89;100.00
13080;BME280;6606;49.154;9.280;2022-11-11T03:19:20;101146.09;;;5.00;100.00
13080;BME280;6606;49.154;9.280;2022-11-11T03:22:04;101143.53;;;4.88;100.00
13080;BME280;6606;49.154;9.280;2022-11-11T03:24:50;101150.47;;;4.95;100.00
13080;BME280;6606;49.154;9.280;2022-11-11T03:27:52;101166.25;;;4.98;100.00
13080;BME280;6606;49.154;9.280;2022-11-11T03:30:38;101169.75;;;4.94;100.00
13080;BME280;6606;49.154;9.280;2022-11-11T03:33:25;101168.03;;;4.88;100.00
13080;BME280;6606;49.154;9.280;2022-11-11T03:36:10;101169.78;;;4.88;100.00
13080;BME280;6606;49.154;9.280;2022-11-11T03:38:56;101175.94;;;4.90;100.00
13080;BME280;6606;49.154;9.280;2022-11-11T03:41:40;101179.41;;;4.90;100.00
13080;BME280;6606;49.154;9.280;2022-11-11T03:44:25;101183.78;;;4.93;100.00
13080;BME280;6606;49.154;9.280;2022-11-11T03:47:11;101188.16;;;4.97;100.00
13080;BME280;6606;49.154;9.280;2022-11-11T03:50:00;101183.75;;;4.99;100.00
13080;BME280;6606;49.154;9.280;2022-11-11T03:52:46;101180.25;;;5.00;100.00
13080;BME280;6606;49.154;9.280;2022-11-11T03:55:31;101180.25;;;5.00;100.00
13080;BME280;6606;49.154;9.280;2022-11-11T03:58:17;101180.25;;;5.00;100.00
13080;BME280;6606;49.154;9.280;2022-11-11T04:01:02;101176.75;;;5.01;100.00
13080;BME280;6606;49.154;9.280;2022-11-11T04:04:08;101183.78;;;4.94;100.00
13080;BME280;6606;49.154;9.280;2022-11-11T04:07:09;101192.56;;;4.82;100.00
13080;BME280;6606;49.154;9.280;2022-11-11T04:10:12;101196.06;;;4.75;100.00
13080;BME280;6606;49.154;9.280;2022-11-11T04:13:09;101184.72;;;4.61;100.00
13080;BME280;6606;49.154;9.280;2022-11-11T04:16:12;101185.59;;;4.49;100.00
13080;BME280;6606;49.154;9.280;2022-11-11T04:18:57;101186.50;;;4.53;100.00
13080;BME280;6606;49.154;9.280;2022-11-11T04:22:00;101188.22;;;4.54;100.00
13080;BME280;6606;49.154;9.280;2022-11-11T04:24:47;101197.00;;;4.56;100.00
13080;BME280;6606;49.154;9.280;2022-11-11T04:27:50;101204.88;;;4.56;100.00
13080;BME280;6606;49.154;9.280;2022-11-11T04:30:55;101209.25;;;4.55;100.00
13080;BME280;6606;49.154;9.280;2022-11-11T04:33:39;101214.47;;;4.52;100.00
13080;BME280;6606;49.154;9.280;2022-11-11T04:36:25;101207.50;;;4.48;100.00
13080;BME280;6606;49.154;9.280;2022-11-11T04:39:10;101217.13;;;4.54;100.00
13080;BME280;6606;49.154;9.280;2022-11-11T04:42:14;101224.97;;;4.60;100.00
13080;BME280;6606;49.154;9.280;2022-11-11T04:45:00;101222.38;;;4.66;100.00
13080;BME280;6606;49.154;9.280;2022-11-11T04:48:05;101234.63;;;4.67;100.00
13080;BME280;6606;49.154;9.280;2022-11-11T04:50:51;101236.38;;;4.74;100.00
13080;BME280;6606;49.154;9.280;2022-11-11T04:53:37;101239.88;;;4.67;100.00
13080;BME280;6606;49.154;9.280;2022-11-11T04:56:22;101246.00;;;4.60;100.00
13080;BME280;6606;49.154;9.280;2022-11-11T04:59:26;101234.63;;;4.64;100.00
13080;BME280;6606;49.154;9.280;2022-11-11T05:02:12;101240.72;;;4.68;100.00
13080;BME280;6606;49.154;9.280;2022-11-11T05:05:15;101231.09;;;4.73;100.00
13080;BME280;6606;49.154;9.280;2022-11-11T05:08:00;101231.13;;;4.71;100.00
13080;BME280;6606;49.154;9.280;2022-11-11T05:11:03;101228.50;;;4.67;100.00
13080;BME280;6606;49.154;9.280;2022-11-11T05:13:49;101228.50;;;4.71;100.00
13080;BME280;6606;49.154;9.280;2022-11-11T05:16:55;101239.00;;;4.48;100.00
13080;BME280;6606;49.154;9.280;2022-11-11T05:19:58;101250.38;;;4.49;100.00
13080;BME280;6606;49.154;9.280;2022-11-11T05:23:01;101254.75;;;4.51;100.00
13080;BME280;6606;49.154;9.280;2022-11-11T05:25:46;101244.25;;;4.54;100.00
13080;BME280;6606;49.154;9.280;2022-11-11T05:28:30;101253.88;;;4.51;100.00
13080;BME280;6606;49.154;9.280;2022-11-11T05:31:15;101264.38;;;4.45;100.00
13080;BME280;6606;49.154;9.280;2022-11-11T05:34:02;101264.38;;;4.45;100.00
13080;BME280;6606;49.154;9.280;2022-11-11T05:36:47;101268.75;;;4.44;100.00
13080;BME280;6606;49.154;9.280;2022-11-11T05:39:33;101273.13;;;4.34;100.00
13080;BME280;6606;49.154;9.280;2022-11-11T05:42:18;101282.75;;;4.32;100.00
13080;BME280;6606;49.154;9.280;2022-11-11T05:45:04;101279.22;;;4.36;100.00
13080;BME280;6606;49.154;9.280;2022-11-11T05:47:49;101285.34;;;4.31;100.00
13080;BME280;6606;49.154;9.280;2022-11-11T05:50:36;101283.63;;;4.31;100.00
13080;BME280;6606;49.154;9.280;2022-11-11T05:53:23;101283.63;;;4.37;100.00
13080;BME280;6606;49.154;9.280;2022-11-11T05:56:09;101287.13;;;4.39;100.00
13080;BME280;6606;49.154;9.280;2022-11-11T05:58:54;101285.38;;;4.32;100.00
13080;BME280;6606;49.154;9.280;2022-11-11T06:01:39;101283.63;;;4.31;100.00
13080;BME280;6606;49.154;9.280;2022-11-11T06:04:24;101290.63;;;4.29;100.00
13080;BME280;6606;49.154;9.280;2022-11-11T06:07:11;101286.25;;;4.27;100.00
13080;BME280;6606;49.154;9.280;2022-11-11T06:09:56;101294.97;;;4.27;100.00
13080;BME280;6606;49.154;9.280;2022-11-11T06:13:01;101289.72;;;4.30;100.00
13080;BME280;6606;49.154;9.280;2022-11-11T06:15:48;101284.47;;;4.30;100.00
13080;BME280;6606;49.154;9.280;2022-11-11T06:18:33;101290.63;;;4.32;100.00
13080;BME280;6606;49.154;9.280;2022-11-11T06:21:18;101294.97;;;4.33;100.00
13080;BME280;6606;49.154;9.280;2022-11-11T06:24:05;101293.22;;;4.34;100.00
13080;BME280;6606;49.154;9.280;2022-11-11T06:26:51;101306.38;;;4.29;100.00
13080;BME280;6606;49.154;9.280;2022-11-11T06:29:35;101308.09;;;4.26;100.00
13080;BME280;6606;49.154;9.280;2022-11-11T06:32:20;101301.91;;;4.07;100.00
13080;BME280;6606;49.154;9.280;2022-11-11T06:35:06;101308.94;;;4.06;100.00
13080;BME280;6606;49.154;9.280;2022-11-11T06:37:51;101308.94;;;4.06;100.00
13080;BME280;6606;49.154;9.280;2022-11-11T06:40:38;101307.19;;;4.11;100.00
13080;BME280;6606;49.154;9.280;2022-11-11T06:43:24;101312.47;;;4.16;100.00
13080;BME280;6606;49.154;9.280;2022-11-11T06:46:15;101310.72;;;4.19;100.00
13080;BME280;6606;49.154;9.280;2022-11-11T06:49:00;101318.59;;;4.24;100.00
13080;BME280;6606;49.154;9.280;2022-11-11T06:51:47;101320.38;;;4.31;100.00
13080;BME280;6606;49.154;9.280;2022-11-11T06:54:32;101314.25;;;4.35;100.00
13080;BME280;6606;49.154;9.280;2022-11-11T06:57:21;101313.34;;;4.33;100.00
13080;BME280;6606;49.154;9.280;2022-11-11T07:00:07;101314.25;;;4.41;100.00
13080;BME280;6606;49.154;9.280;2022-11-11T07:02:54;101310.75;;;4.41;100.00
13080;BME280;6606;49.154;9.280;2022-11-11T07:05:39;101316.03;;;4.50;100.00
13080;BME280;6606;49.154;9.280;2022-11-11T07:08:25;101319.50;;;4.52;100.00
13080;BME280;6606;49.154;9.280;2022-11-11T07:11:10;101322.16;;;4.51;100.00
13080;BME280;6606;49.154;9.280;2022-11-11T07:13:58;101316.91;;;4.51;100.00
13080;BME280;6606;49.154;9.280;2022-11-11T07:16:43;101317.75;;;4.45;100.00
13080;BME280;6606;49.154;9.280;2022-11-11T07:19:28;101323.88;;;4.49;100.00
13080;BME280;6606;49.154;9.280;2022-11-11T07:22:13;101322.16;;;4.45;100.00
13080;BME280;6606;49.154;9.280;2022-11-11T07:24:59;101323.91;;;4.64;100.00
13080;BME280;6606;49.154;9.280;2022-11-11T07:27:44;101332.66;;;4.78;100.00
13080;BME280;6606;49.154;9.280;2022-11-11T07:30:30;101337.91;;;4.78;100.00
13080;BME280;6606;49.154;9.280;2022-11-11T07:33:16;101337.94;;;4.66;100.00
13080;BME280;6606;49.154;9.280;2022-11-11T07:36:01;101336.16;;;4.65;100.00
13080;BME280;6606;49.154;9.280;2022-11-11T07:38:46;101335.28;;;4.81;100.00
13080;BME280;6606;49.154;9.280;2022-11-11T07:41:32;101340.56;;;4.84;100.00
13080;BME280;6606;49.154;9.280;2022-11-11T07:44:17;101340.53;;;4.94;100.00
13080;BME280;6606;49.154;9.280;2022-11-11T07:47:04;101336.19;;;4.77;100.00
13080;BME280;6606;49.154;9.280;2022-11-11T07:49:49;101328.28;;;4.88;100.00
13080;BME280;6606;49.154;9.280;2022-11-11T07:52:35;101330.03;;;4.94;100.00
13080;BME280;6606;49.154;9.280;2022-11-11T07:55:20;101339.66;;;4.99;100.00
13080;BME280;6606;49.154;9.280;2022-11-11T07:58:06;101330.91;;;5.17;100.00
13080;BME280;6606;49.154;9.280;2022-11-11T08:00:52;101330.00;;;5.27;100.00
13080;BME280;6606;49.154;9.280;2022-11-11T08:03:39;101336.09;;;5.48;100.00
13080;BME280;6606;49.154;9.280;2022-11-11T08:06:32;101335.13;;;5.75;100.00
13080;BME280;6606;49.154;9.280;2022-11-11T08:09:17;101336.00;;;5.76;100.00
13080;BME280;6606;49.154;9.280;2022-11-11T08:12:03;101342.16;;;5.73;100.00
13080;BME280;6606;49.154;9.280;2022-11-11T08:15:07;101348.28;;;5.83;100.00
13080;BME280;6606;49.154;9.280;2022-11-11T08:17:53;101355.19;;;6.14;100.00
13080;BME280;6606;49.154;9.280;2022-11-11T08:20:39;101364.75;;;6.31;100.00
13080;BME280;6606;49.154;9.280;2022-11-11T08:23:24;101370.75;;;6.54;100.00
13080;BME280;6606;49.154;9.280;2022-11-11T08:26:15;101361.09;;;6.56;100.00
13080;BME280;6606;49.154;9.280;2022-11-11T08:29:01;101367.25;;;6.52;100.00
13080;BME280;6606;49.154;9.280;2022-11-11T08:31:46;101368.31;;;6.25;100.00
13080;BME280;6606;49.154;9.280;2022-11-11T08:34:31;101355.75;;;6.67;100.00
13080;BME280;6606;49.154;9.280;2022-11-11T08:37:18;101358.13;;;6.99;100.00
13080;BME280;6606;49.154;9.280;2022-11-11T08:40:04;101353.47;;;7.31;100.00
13080;BME280;6606;49.154;9.280;2022-11-11T08:42:50;101357.84;;;7.32;100.00
13080;BME280;6606;49.154;9.280;2022-11-11T08:45:35;101365.91;;;7.12;100.00
13080;BME280;6606;49.154;9.280;2022-11-11T08:48:20;101355.31;;;7.19;100.00
13080;BME280;6606;49.154;9.280;2022-11-11T08:51:05;101357.78;;;7.39;100.00
13080;BME280;6606;49.154;9.280;2022-11-11T08:53:52;101363.81;;;7.51;100.00
13080;BME280;6606;49.154;9.280;2022-11-11T08:56:37;101356.28;;;7.94;100.00
13080;BME280;6606;49.154;9.280;2022-11-11T08:59:23;101350.63;;;8.23;100.00
13080;BME280;6606;49.154;9.280;2022-11-11T09:02:10;101349.56;;;8.36;100.00
13080;BME280;6606;49.154;9.280;2022-11-11T09:04:55;101350.31;;;8.48;100.00
13080;BME280;6606;49.154;9.280;2022-11-11T09:07:40;101346.66;;;8.58;100.00
13080;BME280;6606;49.154;9.280;2022-11-11T09:10:27;101340.75;;;8.37;100.00
13080;BME280;6606;49.154;9.280;2022-11-11T09:13:12;101344.22;;;8.43;100.00
13080;BME280;6606;49.154;9.280;2022-11-11T09:15:57;101347.69;;;8.48;100.00
13080;BME280;6606;49.154;9.280;2022-11-11T09:18:43;101341.25;;;8.64;100.00
13080;BME280;6606;49.154;9.280;2022-11-11T09:21:28;101342.13;;;8.66;100.00
13080;BME280;6606;49.154;9.280;2022-11-11T09:24:13;101339.44;;;8.68;100.00
13080;BME280;6606;49.154;9.280;2022-11-11T09:27:00;101338.50;;;8.73;100.00
13080;BME280;6606;49.154;9.280;2022-11-11T09:29:45;101340.28;;;8.71;100.00
13080;BME280;6606;49.154;9.280;2022-11-11T09:32:31;101339.38;;;8.72;100.00
13080;BME280;6606;49.154;9.280;2022-11-11T09:35:17;101348.53;;;8.50;100.00
13080;BME280;6606;49.154;9.280;2022-11-11T09:38:03;101350.09;;;8.62;100.00
13080;BME280;6606;49.154;9.280;2022-11-11T09:41:00;101342.28;;;8.54;100.00
13080;BME280;6606;49.154;9.280;2022-11-11T09:43:55;101343.72;;;8.75;100.00
13080;BME280;6606;49.154;9.280;2022-11-11T09:46:46;101345.44;;;8.79;100.00
13080;BME280;6606;49.154;9.280;2022-11-11T09:49:50;101353.03;;;8.99;100.00
13080;BME280;6606;49.154;9.280;2022-11-11T09:52:43;101354.25;;;8.79;100.00
13080;BME280;6606;49.154;9.280;2022-11-11T09:55:35;101350.63;;;8.85;100.00
13080;BME280;6606;49.154;9.280;2022-11-11T09:58:27;101354.69;;;9.08;100.00
13080;BME280;6606;49.154;9.280;2022-11-11T10:01:17;101361.25;;;9.33;100.00
13080;BME280;6606;49.154;9.280;2022-11-11T10:04:11;101363.63;;;9.50;100.00
13080;BME280;6606;49.154;9.280;2022-11-11T10:07:02;101364.34;;;9.58;100.00
13080;BME280;6606;49.154;9.280;2022-11-11T10:09:53;101359.50;;;9.79;100.00
13080;BME280;6606;49.154;9.280;2022-11-11T10:12:46;101359.84;;;9.63;100.00
13080;BME280;6606;49.154;9.280;2022-11-11T10:15:35;101360.66;;;9.67;100.00
13080;BME280;6606;49.154;9.280;2022-11-11T10:18:41;101354.19;;;9.35;100.00
13080;BME280;6606;49.154;9.280;2022-11-11T10:21:35;101350.13;;;9.62;100.00
13080;BME280;6606;49.154;9.280;2022-11-11T10:24:27;101348.22;;;10.12;100.00
13080;BME280;6606;49.154;9.280;2022-11-11T10:27:15;101344.69;;;10.13;100.00
13080;BME280;6606;49.154;9.280;2022-11-11T10:30:07;101332.31;;;10.54;100.00
13080;BME280;6606;49.154;9.280;2022-11-11T10:33:00;101334.84;;;10.19;100.00
13080;BME280;6606;49.154;9.280;2022-11-11T10:35:49;101341.84;;;9.81;100.00
13080;BME280;6606;49.154;9.280;2022-11-11T10:38:45;101330.44;;;9.76;100.00
13080;BME280;6606;49.154;9.280;2022-11-11T10:41:35;101317.97;;;9.82;100.00
13080;BME280;6606;49.154;9.280;2022-11-11T10:44:26;101330.00;;;9.55;100.00
13080;BME280;6606;49.154;9.280;2022-11-11T10:47:17;101320.50;;;9.87;100.00
13080;BME280;6606;49.154;9.280;2022-11-11T10:50:06;101314.25;;;9.93;100.00
13080;BME280;6606;49.154;9.280;2022-11-11T10:53:00;101315.09;;;9.93;100.00
13080;BME280;6606;49.154;9.280;2022-11-11T10:55:51;101313.09;;;10.04;100.00
13080;BME280;6606;49.154;9.280;2022-11-11T10:58:43;101310.91;;;10.23;100.00
13080;BME280;6606;49.154;9.280;2022-11-11T11:01:37;101308.22;;;10.25;100.00
13080;BME280;6606;49.154;9.280;2022-11-11T11:04:28;101307.75;;;10.48;100.00
13080;BME280;6606;49.154;9.280;2022-11-11T11:07:20;101315.28;;;10.65;100.00
13080;BME280;6606;49.154;9.280;2022-11-11T11:10:12;101308.41;;;10.92;100.00
13080;BME280;6606;49.154;9.280;2022-11-11T11:13:04;101299.44;;;10.97;100.00
13080;BME280;6606;49.154;9.280;2022-11-11T11:15:55;101301.13;;;11.34;100.00
13080;BME280;6606;49.154;9.280;2022-11-11T11:18:41;101292.25;;;11.35;100.00
13080;BME280;6606;49.154;9.280;2022-11-11T11:21:47;101292.06;;;11.41;100.00
13080;BME280;6606;49.154;9.280;2022-11-11T11:24:34;101291.91;;;11.48;100.00
13080;BME280;6606;49.154;9.280;2022-11-11T11:27:25;101293.81;;;11.74;100.00
13080;BME280;6606;49.154;9.280;2022-11-11T11:30:13;101301.56;;;11.81;100.00
13080;BME280;6606;49.154;9.280;2022-11-11T11:33:00;101300.00;;;12.05;100.00
13080;BME280;6606;49.154;9.280;2022-11-11T11:35:45;101303.66;;;12.31;100.00
13080;BME280;6606;49.154;9.280;2022-11-11T11:38:39;101302.34;;;12.44;100.00
13080;BME280;6606;49.154;9.280;2022-11-11T11:41:36;101305.09;;;12.13;100.00
13080;BME280;6606;49.154;9.280;2022-11-11T11:44:28;101297.19;;;12.38;100.00
13080;BME280;6606;49.154;9.280;2022-11-11T11:47:28;101297.19;;;12.66;100.00
13080;BME280;6606;49.154;9.280;2022-11-11T11:50:29;101296.81;;;12.79;100.00
13080;BME280;6606;49.154;9.280;2022-11-11T11:53:29;101289.88;;;13.00;100.00
13080;BME280;6606;49.154;9.280;2022-11-11T11:56:23;101289.13;;;13.21;100.00
13080;BME280;6606;49.154;9.280;2022-11-11T11:59:16;101280.38;;;13.17;100.00
13080;BME280;6606;49.154;9.280;2022-11-11T12:02:18;101284.91;;;13.40;100.00
13080;BME280;6606;49.154;9.280;2022-11-11T12:05:12;101289.69;;;13.31;100.00
13080;BME280;6606;49.154;9.280;2022-11-11T12:11:19;101275.59;;;13.29;100.00
13080;BME280;6606;49.154;9.280;2022-11-11T12:14:28;101279.78;;;13.09;100.00
13080;BME280;6606;49.154;9.280;2022-11-11T12:17:34;101274.56;;;13.06;100.00
13080;BME280;6606;49.154;9.280;2022-11-11T12:20:28;101282.06;;;13.20;100.00
13080;BME280;6606;49.154;9.280;2022-11-11T12:23:30;101278.41;;;13.23;100.00
13080;BME280;6606;49.154;9.280;2022-11-11T12:26:26;101277.94;;;13.11;100.00
13080;BME280;6606;49.154;9.280;2022-11-11T12:29:27;101266.91;;;12.97;100.00
13080;BME280;6606;49.154;9.280;2022-11-11T12:32:33;101271.41;;;12.95;100.00
13080;BME280;6606;49.154;9.280;2022-11-11T12:35:32;101274.06;;;12.95;100.00
13080;BME280;6606;49.154;9.280;2022-11-11T12:38:33;101266.69;;;13.03;100.00
13080;BME280;6606;49.154;9.280;2022-11-11T12:41:26;101258.72;;;13.28;100.00
13080;BME280;6606;49.154;9.280;2022-11-11T12:44:18;101256.97;;;13.52;100.00
13080;BME280;6606;49.154;9.280;2022-11-11T12:47:21;101259.97;;;13.67;100.00
13080;BME280;6606;49.154;9.280;2022-11-11T12:50:17;101248.50;;;13.88;100.00
13080;BME280;6606;49.154;9.280;2022-11-11T12:53:15;101255.28;;;13.97;100.00
13080;BME280;6606;49.154;9.280;2022-11-11T12:56:12;101255.22;;;14.20;100.00
13080;BME280;6606;49.154;9.280;2022-11-11T12:59:03;101252.69;;;14.39;100.00
13080;BME280;6606;49.154;9.280;2022-11-11T13:01:54;101245.13;;;14.28;100.00
13080;BME280;6606;49.154;9.280;2022-11-11T13:04:52;101247.44;;;14.16;100.00
13080;BME280;6606;49.154;9.280;2022-11-11T13:07:54;101241.63;;;14.04;100.00
13080;BME280;6606;49.154;9.280;2022-11-11T13:10:51;101246.66;;;13.90;100.00
13080;BME280;6606;49.154;9.280;2022-11-11T13:13:52;101250.16;;;13.69;100.00
13080;BME280;6606;49.154;9.280;2022-11-11T13:16:41;101240.63;;;13.61;100.00
13080;BME280;6606;49.154;9.280;2022-11-11T13:19:32;101240.06;;;13.53;100.00
13080;BME280;6606;49.154;9.280;2022-11-11T13:22:22;101233.59;;;13.35;100.00
13080;BME280;6606;49.154;9.280;2022-11-11T13:25:19;101238.88;;;13.37;100.00
13080;BME280;6606;49.154;9.280;2022-11-11T13:28:08;101248.28;;;13.47;100.00
13080;BME280;6606;49.154;9.280;2022-11-11T13:31:08;101247.69;;;13.39;100.00
13080;BME280;6606;49.154;9.280;2022-11-11T13:34:00;101233.84;;;13.29;100.00
13080;BME280;6606;49.154;9.280;2022-11-11T13:36:49;101240.22;;;13.24;100.00
13080;BME280;6606;49.154;9.280;2022-11-11T13:39:38;101235.44;;;13.08;100.00
13080;BME280;6606;49.154;9.280;2022-11-11T13:42:27;101240.09;;;13.02;100.00
13080;BME280;6606;49.154;9.280;2022-11-11T13:45:28;101242.63;;;13.06;100.00
13080;BME280;6606;49.154;9.280;2022-11-11T13:48:22;101246.22;;;13.05;100.00
13080;BME280;6606;49.154;9.280;2022-11-11T13:51:12;101241.38;;;12.91;100.00
13080;BME280;6606;49.154;9.280;2022-11-11T13:54:06;101242.50;;;12.84;100.00
13080;BME280;6606;49.154;9.280;2022-11-11T13:57:06;101239.16;;;12.77;100.00
13080;BME280;6606;49.154;9.280;2022-11-11T14:00:02;101239.75;;;12.86;100.00
13080;BME280;6606;49.154;9.280;2022-11-11T14:03:27;101246.75;;;12.90;100.00
13080;BME280;6606;49.154;9.280;2022-11-11T14:06:52;101237.94;;;12.88;100.00
13080;BME280;6606;49.154;9.280;2022-11-11T14:09:57;101252.16;;;12.87;100.00
13080;BME280;6606;49.154;9.280;2022-11-11T14:12:44;101252.94;;;12.90;100.00
13080;BME280;6606;49.154;9.280;2022-11-11T14:15:40;101247.66;;;12.89;100.00
13080;BME280;6606;49.154;9.280;2022-11-11T14:21:47;101245.41;;;12.76;100.00
13080;BME280;6606;49.154;9.280;2022-11-11T14:24:35;101252.47;;;12.77;100.00
13080;BME280;6606;49.154;9.280;2022-11-11T14:27:24;101246.28;;;12.77;100.00
13080;BME280;6606;49.154;9.280;2022-11-11T14:30:26;101242.91;;;12.72;100.00
13080;BME280;6606;49.154;9.280;2022-11-11T14:33:20;101247.88;;;12.56;100.00
13080;BME280;6606;49.154;9.280;2022-11-11T14:36:16;101236.34;;;12.57;100.00
13080;BME280;6606;49.154;9.280;2022-11-11T14:39:14;101246.31;;;12.49;100.00
13080;BME280;6606;49.154;9.280;2022-11-11T14:42:43;101249.34;;;12.38;100.00
13080;BME280;6606;49.154;9.280;2022-11-11T14:45:59;101244.00;;;12.38;100.00
13080;BME280;6606;49.154;9.280;2022-11-11T14:49:00;101246.63;;;12.40;100.00
13080;BME280;6606;49.154;9.280;2022-11-11T14:52:11;101247.91;;;12.28;100.00
13080;BME280;6606;49.154;9.280;2022-11-11T14:55:12;101239.13;;;12.26;100.00
13080;BME280;6606;49.154;9.280;2022-11-11T14:58:07;101237.88;;;12.09;100.00
13080;BME280;6606;49.154;9.280;2022-11-11T15:00:58;101240.03;;;11.97;100.00
13080;BME280;6606;49.154;9.280;2022-11-11T15:03:47;101244.72;;;11.88;100.00
13080;BME280;6606;49.154;9.280;2022-11-11T15:06:36;101241.56;;;11.74;100.00
13080;BME280;6606;49.154;9.280;2022-11-11T15:09:53;101240.69;;;11.74;100.00